Airfield :
LOGIN :

Register | Disclaimer

   EN    FR    IT 

 










Legend :    VFR   Marginal VFR   IFR   Intensive IFR   Very Intensive IFR
Visi :
Ceiling :
>= 8 km
>= 3000ft
5 to 8 km
1000 to 3000 ft
1500m to 5 km
500 to 1000 ft
800 to 1500m
200 to 500 ft
< 800m
< 200 ft
Symbols :   Thunderstorms  Fog  Heavy snow  Heavy precipitations  Wind > 20 kt
SIGMETs :     Misc.  Thunderstorms  Icing  Turbulence  Mountain Waves  Volcanic Ashes







- Airport Elevation : 545 ft
- IATA code : PZY


LZPP - Piešťany

CURRENT METAR :
  • 151530Z VRB01KT 9999 FEW025 SCT100 03/01 Q1001

EXPIRED METARs :
  • 151500Z 12003KT 9999 FEW022 BKN100 04/02 Q1001
  • 151430Z 10003KT 9999 FEW022 BKN100 05/02 Q1001
  • 151400Z 12002KT 9999 FEW020 BKN100 05/02 Q1001
  • 151330Z VRB01KT 9999 FEW008 BKN100 05/01 Q1000
  • 151300Z VRB02KT 9999 FEW007 BKN100 06/02 Q1000

TAF TAF LZPP
Valid from the 15 at 15:00 until the 16 at 00:00 UTC


151400Z 1515/1600 VRB02KT 9999 SCT027 BKN090
TEMPO 1515/1519 17003KT FEW005 BKN100
BECMG 1519/1521 05004KT
No reported NOTAMs for that airfield.



MET'MAP, your aeronautical weather chart ! - Copyright ORBIFLY December 2007 - Disclaimer

ORBIFLY MET'MAP TEAM :

Programming & Development : Alexandra Zaïnal
Concept & Development : Baudouin d'Aumeries
Co-Development & Prog : Marc-Olivier Méhu
Technical & hardware support : Manuel Goepfert

Contact : metmap@orbifly.com




SOURCES & CREDITS :

   NOAA